sensor_id;sensor_type;location;lat;lon;timestamp;temperature;humidity
43087;DHT22;28708;52.224;6.924;2022-08-03T00:00:52;21.10;99.90
43087;DHT22;28708;52.224;6.924;2022-08-03T00:03:18;21.00;99.90
43087;DHT22;28708;52.224;6.924;2022-08-03T00:05:44;21.00;99.90
43087;DHT22;28708;52.224;6.924;2022-08-03T00:08:10;20.90;99.90
43087;DHT22;28708;52.224;6.924;2022-08-03T00:10:36;21.00;99.90
43087;DHT22;28708;52.224;6.924;2022-08-03T00:13:02;20.90;99.90
43087;DHT22;28708;52.224;6.924;2022-08-03T00:15:28;20.90;99.90
43087;DHT22;28708;52.224;6.924;2022-08-03T00:17:54;20.90;99.90
43087;DHT22;28708;52.224;6.924;2022-08-03T00:20:20;20.90;99.90
43087;DHT22;28708;52.224;6.924;2022-08-03T00:22:46;20.90;99.90
43087;DHT22;28708;52.224;6.924;2022-08-03T00:25:12;20.80;99.90
43087;DHT22;28708;52.224;6.924;2022-08-03T00:27:38;20.70;99.90
43087;DHT22;28708;52.224;6.924;2022-08-03T00:30:04;20.70;99.90
43087;DHT22;28708;52.224;6.924;2022-08-03T00:32:30;20.70;99.90
43087;DHT22;28708;52.224;6.924;2022-08-03T00:34:56;20.70;99.90
43087;DHT22;28708;52.224;6.924;2022-08-03T00:37:22;20.70;99.90
43087;DHT22;28708;52.224;6.924;2022-08-03T00:39:47;20.70;99.90
43087;DHT22;28708;52.224;6.924;2022-08-03T00:42:13;20.70;99.90
43087;DHT22;28708;52.224;6.924;2022-08-03T00:44:41;20.60;99.90
43087;DHT22;28708;52.224;6.924;2022-08-03T00:47:08;20.60;99.90
43087;DHT22;28708;52.224;6.924;2022-08-03T00:49:36;20.60;99.90
43087;DHT22;28708;52.224;6.924;2022-08-03T00:52:02;20.60;99.90
43087;DHT22;28708;52.224;6.924;2022-08-03T00:54:29;20.60;99.90
43087;DHT22;28708;52.224;6.924;2022-08-03T00:56:54;20.60;99.90
43087;DHT22;28708;52.224;6.924;2022-08-03T00:59:20;20.50;99.90
43087;DHT22;28708;52.224;6.924;2022-08-03T01:01:47;20.50;99.90
43087;DHT22;28708;52.224;6.924;2022-08-03T01:04:12;20.50;99.90
43087;DHT22;28708;52.224;6.924;2022-08-03T01:06:45;20.50;99.90
43087;DHT22;28708;52.224;6.924;2022-08-03T01:09:26;20.50;99.90
43087;DHT22;28708;52.224;6.924;2022-08-03T01:14:54;20.50;99.90
43087;DHT22;28708;52.224;6.924;2022-08-03T01:20:14;20.40;99.90
43087;DHT22;28708;52.224;6.924;2022-08-03T01:23:09;20.20;99.90
43087;DHT22;28708;52.224;6.924;2022-08-03T01:26:26;20.10;99.90
43087;DHT22;28708;52.224;6.924;2022-08-03T01:31:34;20.10;99.90
43087;DHT22;28708;52.224;6.924;2022-08-03T01:34:03;20.00;99.90
43087;DHT22;28708;52.224;6.924;2022-08-03T01:36:45;19.90;99.90
43087;DHT22;28708;52.224;6.924;2022-08-03T01:39:14;19.80;99.90
43087;DHT22;28708;52.224;6.924;2022-08-03T01:41:49;19.80;99.90
43087;DHT22;28708;52.224;6.924;2022-08-03T01:44:17;19.90;99.90
43087;DHT22;28708;52.224;6.924;2022-08-03T01:46:43;20.00;99.90
43087;DHT22;28708;52.224;6.924;2022-08-03T01:49:14;20.00;99.90
43087;DHT22;28708;52.224;6.924;2022-08-03T01:51:42;20.10;99.90
43087;DHT22;28708;52.224;6.924;2022-08-03T01:54:10;20.10;99.90
43087;DHT22;28708;52.224;6.924;2022-08-03T01:56:37;20.10;99.90
43087;DHT22;28708;52.224;6.924;2022-08-03T01:59:06;20.00;99.90
43087;DHT22;28708;52.224;6.924;2022-08-03T02:01:35;19.90;99.90
43087;DHT22;28708;52.224;6.924;2022-08-03T02:04:02;19.90;99.90
43087;DHT22;28708;52.224;6.924;2022-08-03T02:06:31;19.90;99.90
43087;DHT22;28708;52.224;6.924;2022-08-03T02:08:59;19.80;99.90
43087;DHT22;28708;52.224;6.924;2022-08-03T02:11:26;19.70;99.90
43087;DHT22;28708;52.224;6.924;2022-08-03T02:13:53;19.70;99.90
43087;DHT22;28708;52.224;6.924;2022-08-03T02:16:21;19.60;99.90
43087;DHT22;28708;52.224;6.924;2022-08-03T02:18:50;19.60;99.90
43087;DHT22;28708;52.224;6.924;2022-08-03T02:21:17;19.60;99.90
43087;DHT22;28708;52.224;6.924;2022-08-03T02:23:43;19.60;99.90
43087;DHT22;28708;52.224;6.924;2022-08-03T02:26:14;19.60;99.90
43087;DHT22;28708;52.224;6.924;2022-08-03T02:28:45;19.50;99.90
43087;DHT22;28708;52.224;6.924;2022-08-03T02:31:17;19.60;99.90
43087;DHT22;28708;52.224;6.924;2022-08-03T02:33:50;19.60;99.90
43087;DHT22;28708;52.224;6.924;2022-08-03T02:36:22;19.60;99.90
43087;DHT22;28708;52.224;6.924;2022-08-03T02:38:52;19.60;99.90
43087;DHT22;28708;52.224;6.924;2022-08-03T02:41:20;19.50;99.90
43087;DHT22;28708;52.224;6.924;2022-08-03T02:43:50;19.40;99.90
43087;DHT22;28708;52.224;6.924;2022-08-03T02:46:19;19.40;99.90
43087;DHT22;28708;52.224;6.924;2022-08-03T02:48:47;19.40;99.90
43087;DHT22;28708;52.224;6.924;2022-08-03T02:51:17;19.40;99.90
43087;DHT22;28708;52.224;6.924;2022-08-03T02:53:45;19.60;99.90
43087;DHT22;28708;52.224;6.924;2022-08-03T02:56:12;19.60;99.90
43087;DHT22;28708;52.224;6.924;2022-08-03T02:58:42;19.70;99.90
43087;DHT22;28708;52.224;6.924;2022-08-03T03:01:09;19.70;99.90
43087;DHT22;28708;52.224;6.924;2022-08-03T03:03:35;19.70;99.90
43087;DHT22;28708;52.224;6.924;2022-08-03T03:06:02;19.60;99.90
43087;DHT22;28708;52.224;6.924;2022-08-03T03:08:29;19.50;99.90
43087;DHT22;28708;52.224;6.924;2022-08-03T03:10:59;19.50;99.90
43087;DHT22;28708;52.224;6.924;2022-08-03T03:13:27;19.60;99.90
43087;DHT22;28708;52.224;6.924;2022-08-03T03:15:56;19.60;99.90
43087;DHT22;28708;52.224;6.924;2022-08-03T03:18:24;19.60;99.90
43087;DHT22;28708;52.224;6.924;2022-08-03T03:20:52;19.60;99.90
43087;DHT22;28708;52.224;6.924;2022-08-03T03:23:20;19.60;99.90
43087;DHT22;28708;52.224;6.924;2022-08-03T03:25:46;19.60;99.90
43087;DHT22;28708;52.224;6.924;2022-08-03T03:28:13;19.70;99.90
43087;DHT22;28708;52.224;6.924;2022-08-03T03:30:39;19.70;99.90
43087;DHT22;28708;52.224;6.924;2022-08-03T03:33:05;19.60;99.90
43087;DHT22;28708;52.224;6.924;2022-08-03T03:35:31;19.60;99.90
43087;DHT22;28708;52.224;6.924;2022-08-03T03:37:57;19.60;99.90
43087;DHT22;28708;52.224;6.924;2022-08-03T03:40:24;19.50;99.90
43087;DHT22;28708;52.224;6.924;2022-08-03T03:42:50;19.40;99.90
43087;DHT22;28708;52.224;6.924;2022-08-03T03:45:17;19.40;99.90
43087;DHT22;28708;52.224;6.924;2022-08-03T03:47:43;19.50;99.90
43087;DHT22;28708;52.224;6.924;2022-08-03T03:50:09;19.50;99.90
43087;DHT22;28708;52.224;6.924;2022-08-03T03:52:35;19.50;99.90
43087;DHT22;28708;52.224;6.924;2022-08-03T03:55:02;19.50;99.90
43087;DHT22;28708;52.224;6.924;2022-08-03T03:57:28;19.40;99.90
43087;DHT22;28708;52.224;6.924;2022-08-03T03:59:54;19.30;99.90
43087;DHT22;28708;52.224;6.924;2022-08-03T04:02:20;19.30;99.90
43087;DHT22;28708;52.224;6.924;2022-08-03T04:04:45;19.20;99.90
43087;DHT22;28708;52.224;6.924;2022-08-03T04:07:41;19.10;99.90
43087;DHT22;28708;52.224;6.924;2022-08-03T04:10:30;19.10;99.90
43087;DHT22;28708;52.224;6.924;2022-08-03T04:13:17;19.00;99.90
43087;DHT22;28708;52.224;6.924;2022-08-03T04:15:44;19.00;99.90
43087;DHT22;28708;52.224;6.924;2022-08-03T04:18:12;19.00;99.90
43087;DHT22;28708;52.224;6.924;2022-08-03T04:20:43;19.00;99.90
43087;DHT22;28708;52.224;6.924;2022-08-03T04:23:10;18.90;99.90
43087;DHT22;28708;52.224;6.924;2022-08-03T04:25:39;19.00;99.90
43087;DHT22;28708;52.224;6.924;2022-08-03T04:28:06;19.00;99.90
43087;DHT22;28708;52.224;6.924;2022-08-03T04:30:35;18.90;99.90
43087;DHT22;28708;52.224;6.924;2022-08-03T04:33:03;18.90;99.90
43087;DHT22;28708;52.224;6.924;2022-08-03T04:35:32;18.90;99.90
43087;DHT22;28708;52.224;6.924;2022-08-03T04:38:05;18.90;99.90
43087;DHT22;28708;52.224;6.924;2022-08-03T04:40:36;19.00;99.90
43087;DHT22;28708;52.224;6.924;2022-08-03T04:43:04;19.10;99.90
43087;DHT22;28708;52.224;6.924;2022-08-03T04:45:31;19.10;99.90
43087;DHT22;28708;52.224;6.924;2022-08-03T04:47:58;19.10;99.90
43087;DHT22;28708;52.224;6.924;2022-08-03T04:50:25;19.10;99.90
43087;DHT22;28708;52.224;6.924;2022-08-03T04:53:05;19.20;99.90
43087;DHT22;28708;52.224;6.924;2022-08-03T04:55:33;19.10;99.90
43087;DHT22;28708;52.224;6.924;2022-08-03T04:58:00;19.20;99.90
43087;DHT22;28708;52.224;6.924;2022-08-03T05:00:27;19.20;99.90
43087;DHT22;28708;52.224;6.924;2022-08-03T05:02:53;19.20;99.90
43087;DHT22;28708;52.224;6.924;2022-08-03T05:05:19;19.30;99.90
43087;DHT22;28708;52.224;6.924;2022-08-03T05:07:45;19.40;99.90
43087;DHT22;28708;52.224;6.924;2022-08-03T05:10:11;19.40;99.90
43087;DHT22;28708;52.224;6.924;2022-08-03T05:12:38;19.40;99.90
43087;DHT22;28708;52.224;6.924;2022-08-03T05:15:04;19.40;99.90
43087;DHT22;28708;52.224;6.924;2022-08-03T05:17:30;19.50;99.90
43087;DHT22;28708;52.224;6.924;2022-08-03T05:19:59;19.60;99.90
43087;DHT22;28708;52.224;6.924;2022-08-03T05:22:25;19.70;99.90
43087;DHT22;28708;52.224;6.924;2022-08-03T05:24:51;19.70;99.90
43087;DHT22;28708;52.224;6.924;2022-08-03T05:27:17;19.70;99.90
43087;DHT22;28708;52.224;6.924;2022-08-03T05:29:47;19.80;99.90
43087;DHT22;28708;52.224;6.924;2022-08-03T05:32:13;19.80;99.90
43087;DHT22;28708;52.224;6.924;2022-08-03T05:34:39;20.00;99.90
43087;DHT22;28708;52.224;6.924;2022-08-03T05:37:05;20.00;99.90
43087;DHT22;28708;52.224;6.924;2022-08-03T05:39:34;20.10;99.90
43087;DHT22;28708;52.224;6.924;2022-08-03T05:42:00;20.20;99.90
43087;DHT22;28708;52.224;6.924;2022-08-03T05:44:26;20.30;99.90
43087;DHT22;28708;52.224;6.924;2022-08-03T05:46:52;20.50;99.90
43087;DHT22;28708;52.224;6.924;2022-08-03T05:49:18;20.50;99.90
43087;DHT22;28708;52.224;6.924;2022-08-03T05:51:45;20.60;99.90
43087;DHT22;28708;52.224;6.924;2022-08-03T05:54:11;20.80;99.90
43087;DHT22;28708;52.224;6.924;2022-08-03T05:56:37;20.80;99.90
43087;DHT22;28708;52.224;6.924;2022-08-03T05:59:05;20.90;99.90
43087;DHT22;28708;52.224;6.924;2022-08-03T06:01:31;20.90;99.90
43087;DHT22;28708;52.224;6.924;2022-08-03T06:03:58;21.00;99.90
43087;DHT22;28708;52.224;6.924;2022-08-03T06:06:24;21.00;99.90
43087;DHT22;28708;52.224;6.924;2022-08-03T06:08:50;21.10;99.90
43087;DHT22;28708;52.224;6.924;2022-08-03T06:11:16;21.10;99.90
43087;DHT22;28708;52.224;6.924;2022-08-03T06:13:42;21.20;99.90
43087;DHT22;28708;52.224;6.924;2022-08-03T06:16:08;21.30;99.90
43087;DHT22;28708;52.224;6.924;2022-08-03T06:18:34;21.30;99.90
43087;DHT22;28708;52.224;6.924;2022-08-03T06:21:01;21.40;99.90
43087;DHT22;28708;52.224;6.924;2022-08-03T06:23:26;21.50;99.90
43087;DHT22;28708;52.224;6.924;2022-08-03T06:25:52;21.50;99.90
43087;DHT22;28708;52.224;6.924;2022-08-03T06:28:18;21.50;99.90
43087;DHT22;28708;52.224;6.924;2022-08-03T06:30:44;21.70;99.90
43087;DHT22;28708;52.224;6.924;2022-08-03T06:33:11;21.80;99.90
43087;DHT22;28708;52.224;6.924;2022-08-03T06:35:37;21.90;99.90
43087;DHT22;28708;52.224;6.924;2022-08-03T06:38:02;22.00;99.90
43087;DHT22;28708;52.224;6.924;2022-08-03T06:40:28;22.20;99.90
43087;DHT22;28708;52.224;6.924;2022-08-03T06:43:00;22.30;99.90
43087;DHT22;28708;52.224;6.924;2022-08-03T06:45:26;22.40;99.90
43087;DHT22;28708;52.224;6.924;2022-08-03T06:48:19;22.50;99.90
43087;DHT22;28708;52.224;6.924;2022-08-03T06:50:45;22.50;99.90
43087;DHT22;28708;52.224;6.924;2022-08-03T06:53:11;22.50;99.90
43087;DHT22;28708;52.224;6.924;2022-08-03T06:55:37;22.50;99.90
43087;DHT22;28708;52.224;6.924;2022-08-03T06:58:02;22.70;99.90
43087;DHT22;28708;52.224;6.924;2022-08-03T07:00:28;22.70;99.90
43087;DHT22;28708;52.224;6.924;2022-08-03T07:02:55;22.70;99.90
43087;DHT22;28708;52.224;6.924;2022-08-03T07:05:21;22.70;99.90
43087;DHT22;28708;52.224;6.924;2022-08-03T07:07:47;22.70;99.90
43087;DHT22;28708;52.224;6.924;2022-08-03T07:10:14;22.70;99.90
43087;DHT22;28708;52.224;6.924;2022-08-03T07:12:40;22.70;99.90
43087;DHT22;28708;52.224;6.924;2022-08-03T07:15:07;22.80;99.90
43087;DHT22;28708;52.224;6.924;2022-08-03T07:17:34;22.90;99.90
43087;DHT22;28708;52.224;6.924;2022-08-03T07:20:03;22.90;99.90
43087;DHT22;28708;52.224;6.924;2022-08-03T07:22:29;23.00;99.90
43087;DHT22;28708;52.224;6.924;2022-08-03T07:24:55;23.10;99.90
43087;DHT22;28708;52.224;6.924;2022-08-03T07:27:21;23.20;99.90
43087;DHT22;28708;52.224;6.924;2022-08-03T07:29:47;23.30;99.90
43087;DHT22;28708;52.224;6.924;2022-08-03T07:32:13;23.40;99.90
43087;DHT22;28708;52.224;6.924;2022-08-03T07:34:39;23.50;99.90
43087;DHT22;28708;52.224;6.924;2022-08-03T07:37:05;23.50;99.90
43087;DHT22;28708;52.224;6.924;2022-08-03T07:39:31;23.60;99.90
43087;DHT22;28708;52.224;6.924;2022-08-03T07:41:56;23.50;99.90
43087;DHT22;28708;52.224;6.924;2022-08-03T07:44:22;23.50;99.90
43087;DHT22;28708;52.224;6.924;2022-08-03T07:46:48;23.70;99.90
43087;DHT22;28708;52.224;6.924;2022-08-03T07:49:15;23.90;99.90
43087;DHT22;28708;52.224;6.924;2022-08-03T07:51:41;24.00;99.90
43087;DHT22;28708;52.224;6.924;2022-08-03T07:54:07;24.10;99.90
43087;DHT22;28708;52.224;6.924;2022-08-03T07:56:35;24.30;99.90
43087;DHT22;28708;52.224;6.924;2022-08-03T07:59:01;24.40;99.90
43087;DHT22;28708;52.224;6.924;2022-08-03T08:01:28;24.50;99.90
43087;DHT22;28708;52.224;6.924;2022-08-03T08:03:54;24.60;99.90
43087;DHT22;28708;52.224;6.924;2022-08-03T08:06:20;24.60;99.90
43087;DHT22;28708;52.224;6.924;2022-08-03T08:08:46;24.50;99.90
43087;DHT22;28708;52.224;6.924;2022-08-03T08:11:12;24.60;99.90
43087;DHT22;28708;52.224;6.924;2022-08-03T08:13:38;24.70;99.90
43087;DHT22;28708;52.224;6.924;2022-08-03T08:16:04;24.80;99.90
43087;DHT22;28708;52.224;6.924;2022-08-03T08:18:31;25.00;99.90
43087;DHT22;28708;52.224;6.924;2022-08-03T08:20:57;25.10;99.90
43087;DHT22;28708;52.224;6.924;2022-08-03T08:23:23;25.00;99.90
43087;DHT22;28708;52.224;6.924;2022-08-03T08:25:50;25.10;99.90
43087;DHT22;28708;52.224;6.924;2022-08-03T08:28:20;25.20;99.90
43087;DHT22;28708;52.224;6.924;2022-08-03T08:30:47;25.10;99.90
43087;DHT22;28708;52.224;6.924;2022-08-03T08:33:13;25.20;99.90
43087;DHT22;28708;52.224;6.924;2022-08-03T08:35:39;25.50;99.90
43087;DHT22;28708;52.224;6.924;2022-08-03T08:38:05;25.70;99.90
43087;DHT22;28708;52.224;6.924;2022-08-03T08:40:31;25.90;99.90
43087;DHT22;28708;52.224;6.924;2022-08-03T08:42:57;25.80;99.90
43087;DHT22;28708;52.224;6.924;2022-08-03T08:45:23;25.70;99.90
43087;DHT22;28708;52.224;6.924;2022-08-03T08:47:49;25.90;99.90
43087;DHT22;28708;52.224;6.924;2022-08-03T08:50:20;26.20;99.90
43087;DHT22;28708;52.224;6.924;2022-08-03T08:52:48;26.30;99.90
43087;DHT22;28708;52.224;6.924;2022-08-03T08:55:21;26.80;99.90
43087;DHT22;28708;52.224;6.924;2022-08-03T08:57:48;28.00;99.90
43087;DHT22;28708;52.224;6.924;2022-08-03T09:00:15;29.20;99.90
43087;DHT22;28708;52.224;6.924;2022-08-03T09:02:42;29.90;99.90
43087;DHT22;28708;52.224;6.924;2022-08-03T09:05:13;30.20;99.90
43087;DHT22;28708;52.224;6.924;2022-08-03T09:07:40;29.70;99.90
43087;DHT22;28708;52.224;6.924;2022-08-03T09:10:07;29.00;99.90
43087;DHT22;28708;52.224;6.924;2022-08-03T09:12:46;29.60;99.90
43087;DHT22;28708;52.224;6.924;2022-08-03T09:15:31;30.10;99.90
43087;DHT22;28708;52.224;6.924;2022-08-03T09:17:59;30.80;99.90
43087;DHT22;28708;52.224;6.924;2022-08-03T09:20:27;30.70;99.90
43087;DHT22;28708;52.224;6.924;2022-08-03T09:23:00;31.00;99.90
43087;DHT22;28708;52.224;6.924;2022-08-03T09:25:28;30.90;99.90
43087;DHT22;28708;52.224;6.924;2022-08-03T09:27:54;30.40;99.90
43087;DHT22;28708;52.224;6.924;2022-08-03T09:30:20;31.00;99.90
43087;DHT22;28708;52.224;6.924;2022-08-03T09:32:46;31.20;99.30
43087;DHT22;28708;52.224;6.924;2022-08-03T09:35:13;31.60;98.60
43087;DHT22;28708;52.224;6.924;2022-08-03T09:37:39;31.80;97.20
43087;DHT22;28708;52.224;6.924;2022-08-03T09:40:06;32.10;95.30
43087;DHT22;28708;52.224;6.924;2022-08-03T09:42:32;31.50;95.30
43087;DHT22;28708;52.224;6.924;2022-08-03T09:45:03;31.90;94.60
43087;DHT22;28708;52.224;6.924;2022-08-03T09:47:34;32.50;93.70
43087;DHT22;28708;52.224;6.924;2022-08-03T09:50:06;32.60;93.30
43087;DHT22;28708;52.224;6.924;2022-08-03T09:52:41;32.40;91.70
43087;DHT22;28708;52.224;6.924;2022-08-03T09:55:13;32.80;91.00
43087;DHT22;28708;52.224;6.924;2022-08-03T09:57:39;32.20;90.60
43087;DHT22;28708;52.224;6.924;2022-08-03T10:00:12;31.40;91.40
43087;DHT22;28708;52.224;6.924;2022-08-03T10:02:40;31.30;91.50
43087;DHT22;28708;52.224;6.924;2022-08-03T10:05:08;32.10;90.30
43087;DHT22;28708;52.224;6.924;2022-08-03T10:07:45;32.50;89.50
43087;DHT22;28708;52.224;6.924;2022-08-03T10:10:13;33.20;88.70
43087;DHT22;28708;52.224;6.924;2022-08-03T10:12:40;34.10;84.90
43087;DHT22;28708;52.224;6.924;2022-08-03T10:15:07;34.10;82.60
43087;DHT22;28708;52.224;6.924;2022-08-03T10:17:33;33.00;84.00
43087;DHT22;28708;52.224;6.924;2022-08-03T10:19:59;33.00;84.30
43087;DHT22;28708;52.224;6.924;2022-08-03T10:22:35;34.30;80.20
43087;DHT22;28708;52.224;6.924;2022-08-03T10:25:10;33.40;80.10
43087;DHT22;28708;52.224;6.924;2022-08-03T10:27:40;32.50;80.70
43087;DHT22;28708;52.224;6.924;2022-08-03T10:30:09;32.30;82.20
43087;DHT22;28708;52.224;6.924;2022-08-03T10:32:47;32.40;83.10
43087;DHT22;28708;52.224;6.924;2022-08-03T10:35:15;33.20;79.20
43087;DHT22;28708;52.224;6.924;2022-08-03T10:37:44;32.70;80.30
43087;DHT22;28708;52.224;6.924;2022-08-03T10:40:14;33.20;78.10
43087;DHT22;28708;52.224;6.924;2022-08-03T10:42:42;33.50;77.60
43087;DHT22;28708;52.224;6.924;2022-08-03T10:45:19;32.70;78.60
43087;DHT22;28708;52.224;6.924;2022-08-03T10:47:47;33.20;76.40
43087;DHT22;28708;52.224;6.924;2022-08-03T10:50:13;33.30;77.00
43087;DHT22;28708;52.224;6.924;2022-08-03T10:52:57;33.70;76.80
43087;DHT22;28708;52.224;6.924;2022-08-03T10:55:31;33.60;74.20
43087;DHT22;28708;52.224;6.924;2022-08-03T10:58:54;34.30;74.70
43087;DHT22;28708;52.224;6.924;2022-08-03T11:01:53;34.00;73.90
43087;DHT22;28708;52.224;6.924;2022-08-03T11:04:20;34.60;72.20
43087;DHT22;28708;52.224;6.924;2022-08-03T11:09:44;33.30;73.90
43087;DHT22;28708;52.224;6.924;2022-08-03T11:12:27;33.50;73.60
43087;DHT22;28708;52.224;6.924;2022-08-03T11:14:55;33.90;72.50
43087;DHT22;28708;52.224;6.924;2022-08-03T11:17:21;33.30;72.40
43087;DHT22;28708;52.224;6.924;2022-08-03T11:19:49;33.50;73.60
43087;DHT22;28708;52.224;6.924;2022-08-03T11:22:16;34.70;71.20
43087;DHT22;28708;52.224;6.924;2022-08-03T11:27:32;33.40;73.70
43087;DHT22;28708;52.224;6.924;2022-08-03T11:40:44;32.60;73.80
43087;DHT22;28708;52.224;6.924;2022-08-03T11:45:58;31.70;75.90
43087;DHT22;28708;52.224;6.924;2022-08-03T11:51:00;31.20;77.80
43087;DHT22;28708;52.224;6.924;2022-08-03T11:53:26;31.20;78.40
43087;DHT22;28708;52.224;6.924;2022-08-03T11:55:52;31.20;78.20
43087;DHT22;28708;52.224;6.924;2022-08-03T11:58:22;31.20;78.00
43087;DHT22;28708;52.224;6.924;2022-08-03T12:00:49;31.00;78.50
43087;DHT22;28708;52.224;6.924;2022-08-03T12:03:17;30.80;79.90
43087;DHT22;28708;52.224;6.924;2022-08-03T12:08:17;31.00;78.20
43087;DHT22;28708;52.224;6.924;2022-08-03T12:10:49;31.00;78.40
43087;DHT22;28708;52.224;6.924;2022-08-03T12:13:17;31.20;79.00
43087;DHT22;28708;52.224;6.924;2022-08-03T12:15:52;31.20;78.90
43087;DHT22;28708;52.224;6.924;2022-08-03T12:18:20;30.90;79.10
43087;DHT22;28708;52.224;6.924;2022-08-03T12:20:47;31.00;78.10
43087;DHT22;28708;52.224;6.924;2022-08-03T12:23:13;31.20;78.30
43087;DHT22;28708;52.224;6.924;2022-08-03T12:25:41;31.30;77.70
43087;DHT22;28708;52.224;6.924;2022-08-03T12:28:20;31.30;77.30
43087;DHT22;28708;52.224;6.924;2022-08-03T12:30:51;31.10;76.30
43087;DHT22;28708;52.224;6.924;2022-08-03T12:33:25;31.10;77.40
43087;DHT22;28708;52.224;6.924;2022-08-03T12:36:11;31.10;78.30
43087;DHT22;28708;52.224;6.924;2022-08-03T12:38:38;31.20;76.80
43087;DHT22;28708;52.224;6.924;2022-08-03T12:41:07;31.50;77.30
43087;DHT22;28708;52.224;6.924;2022-08-03T12:43:33;31.20;77.50
43087;DHT22;28708;52.224;6.924;2022-08-03T12:46:29;31.30;78.40
43087;DHT22;28708;52.224;6.924;2022-08-03T12:49:03;31.50;77.70
43087;DHT22;28708;52.224;6.924;2022-08-03T12:51:35;31.70;76.80
43087;DHT22;28708;52.224;6.924;2022-08-03T12:54:03;31.70;77.50
43087;DHT22;28708;52.224;6.924;2022-08-03T12:56:29;31.80;77.10
43087;DHT22;28708;52.224;6.924;2022-08-03T12:58:55;31.80;76.20
43087;DHT22;28708;52.224;6.924;2022-08-03T13:01:21;31.60;77.20
43087;DHT22;28708;52.224;6.924;2022-08-03T13:03:50;31.70;77.30
43087;DHT22;28708;52.224;6.924;2022-08-03T13:06:21;31.70;76.50
43087;DHT22;28708;52.224;6.924;2022-08-03T13:08:48;31.60;76.70
43087;DHT22;28708;52.224;6.924;2022-08-03T13:11:23;31.60;77.70
43087;DHT22;28708;52.224;6.924;2022-08-03T13:13:51;31.50;77.00
43087;DHT22;28708;52.224;6.924;2022-08-03T13:16:17;31.40;76.50
43087;DHT22;28708;52.224;6.924;2022-08-03T13:18:43;31.60;77.20
43087;DHT22;28708;52.224;6.924;2022-08-03T13:21:12;32.10;77.70
43087;DHT22;28708;52.224;6.924;2022-08-03T13:23:38;32.10;75.50
43087;DHT22;28708;52.224;6.924;2022-08-03T13:26:04;31.80;75.50
43087;DHT22;28708;52.224;6.924;2022-08-03T13:28:30;32.00;75.10
43087;DHT22;28708;52.224;6.924;2022-08-03T13:30:56;32.20;75.00
43087;DHT22;28708;52.224;6.924;2022-08-03T13:33:22;32.30;74.10
43087;DHT22;28708;52.224;6.924;2022-08-03T13:35:48;32.20;74.90
43087;DHT22;28708;52.224;6.924;2022-08-03T13:38:13;32.30;74.50
43087;DHT22;28708;52.224;6.924;2022-08-03T13:40:39;32.40;74.80
43087;DHT22;28708;52.224;6.924;2022-08-03T13:43:05;32.30;73.90
43087;DHT22;28708;52.224;6.924;2022-08-03T13:45:31;32.50;75.30
43087;DHT22;28708;52.224;6.924;2022-08-03T13:47:57;32.30;75.00
43087;DHT22;28708;52.224;6.924;2022-08-03T13:50:22;32.50;76.30
43087;DHT22;28708;52.224;6.924;2022-08-03T13:52:48;32.80;75.30
43087;DHT22;28708;52.224;6.924;2022-08-03T13:55:14;32.70;74.70
43087;DHT22;28708;52.224;6.924;2022-08-03T13:57:40;32.30;74.70
43087;DHT22;28708;52.224;6.924;2022-08-03T14:00:06;32.30;74.60
43087;DHT22;28708;52.224;6.924;2022-08-03T14:02:32;32.40;76.40
43087;DHT22;28708;52.224;6.924;2022-08-03T14:04:58;32.30;74.60
43087;DHT22;28708;52.224;6.924;2022-08-03T14:07:24;32.50;74.30
43087;DHT22;28708;52.224;6.924;2022-08-03T14:09:49;32.70;73.40
43087;DHT22;28708;52.224;6.924;2022-08-03T14:12:17;32.60;74.00
43087;DHT22;28708;52.224;6.924;2022-08-03T14:14:43;32.90;73.00
43087;DHT22;28708;52.224;6.924;2022-08-03T14:17:09;33.40;73.80
43087;DHT22;28708;52.224;6.924;2022-08-03T14:19:35;33.60;73.10
43087;DHT22;28708;52.224;6.924;2022-08-03T14:22:01;33.70;73.10
43087;DHT22;28708;52.224;6.924;2022-08-03T14:24:27;33.20;72.60
43087;DHT22;28708;52.224;6.924;2022-08-03T14:26:53;33.10;73.30
43087;DHT22;28708;52.224;6.924;2022-08-03T14:29:19;33.20;73.70
43087;DHT22;28708;52.224;6.924;2022-08-03T14:31:45;33.50;74.20
43087;DHT22;28708;52.224;6.924;2022-08-03T14:34:11;33.40;72.80
43087;DHT22;28708;52.224;6.924;2022-08-03T14:36:37;33.20;73.40
43087;DHT22;28708;52.224;6.924;2022-08-03T14:39:03;32.80;73.50
43087;DHT22;28708;52.224;6.924;2022-08-03T14:41:31;33.00;74.40
43087;DHT22;28708;52.224;6.924;2022-08-03T14:43:57;32.90;73.90
43087;DHT22;28708;52.224;6.924;2022-08-03T14:46:23;33.10;74.30
43087;DHT22;28708;52.224;6.924;2022-08-03T14:48:49;33.00;73.70
43087;DHT22;28708;52.224;6.924;2022-08-03T14:51:14;32.70;74.30
43087;DHT22;28708;52.224;6.924;2022-08-03T14:53:42;32.60;73.90
43087;DHT22;28708;52.224;6.924;2022-08-03T14:56:08;32.20;73.30
43087;DHT22;28708;52.224;6.924;2022-08-03T14:58:34;32.30;75.20
43087;DHT22;28708;52.224;6.924;2022-08-03T15:01:00;32.30;75.50
43087;DHT22;28708;52.224;6.924;2022-08-03T15:03:26;32.40;74.70
43087;DHT22;28708;52.224;6.924;2022-08-03T15:05:53;32.60;74.50
43087;DHT22;28708;52.224;6.924;2022-08-03T15:08:20;32.50;74.40
43087;DHT22;28708;52.224;6.924;2022-08-03T15:10:46;32.70;73.70
43087;DHT22;28708;52.224;6.924;2022-08-03T15:13:13;32.70;73.30
43087;DHT22;28708;52.224;6.924;2022-08-03T15:15:40;32.60;71.80
43087;DHT22;28708;52.224;6.924;2022-08-03T15:18:06;32.50;72.20
43087;DHT22;28708;52.224;6.924;2022-08-03T15:20:32;32.40;73.40
43087;DHT22;28708;52.224;6.924;2022-08-03T15:23:00;32.30;73.40
43087;DHT22;28708;52.224;6.924;2022-08-03T15:25:26;32.30;73.40
43087;DHT22;28708;52.224;6.924;2022-08-03T15:27:52;32.30;72.80
43087;DHT22;28708;52.224;6.924;2022-08-03T15:30:18;32.50;72.20
43087;DHT22;28708;52.224;6.924;2022-08-03T15:32:44;32.30;72.60
43087;DHT22;28708;52.224;6.924;2022-08-03T15:35:10;32.20;73.90
43087;DHT22;28708;52.224;6.924;2022-08-03T15:37:35;32.20;73.30
43087;DHT22;28708;52.224;6.924;2022-08-03T15:40:02;32.30;74.30
43087;DHT22;28708;52.224;6.924;2022-08-03T15:42:29;32.50;74.10
43087;DHT22;28708;52.224;6.924;2022-08-03T15:44:55;32.50;73.90
43087;DHT22;28708;52.224;6.924;2022-08-03T15:47:20;32.60;73.40
43087;DHT22;28708;52.224;6.924;2022-08-03T15:49:46;32.50;71.70
43087;DHT22;28708;52.224;6.924;2022-08-03T15:52:12;32.30;71.60
43087;DHT22;28708;52.224;6.924;2022-08-03T15:54:38;32.30;71.30
43087;DHT22;28708;52.224;6.924;2022-08-03T15:57:04;32.10;71.50
43087;DHT22;28708;52.224;6.924;2022-08-03T15:59:29;32.00;71.60
43087;DHT22;28708;52.224;6.924;2022-08-03T16:01:55;32.10;71.90
43087;DHT22;28708;52.224;6.924;2022-08-03T16:04:21;32.20;72.00
43087;DHT22;28708;52.224;6.924;2022-08-03T16:06:53;32.00;70.40
43087;DHT22;28708;52.224;6.924;2022-08-03T16:09:19;32.00;71.40